• Join FlightAware (Why Join?)
  • Login
  • US Flag 
01:51AM EST


 

Airport Tracker/Info


-or-


 

Live Flight TrackerFlight Track Log ✈ SWA975 ✈ 26-Jan-2014 ✈ KMCI - KBOS

Flight Track Log - Related Links

Times and Time Zones

All times are in EST time to prevent confusion due to time zone crossing. See the SWA975 flight status page for this flight to view local times or setup timezone preferences in your user account.

Time Position Orientation Groundspeed Altitude Reporting Facility
EST Latitude Longitude Course Direction KTS MPH feet Rate Location/Type
10:46AM 39.3167 -94.7167 32° Northeast 140 161 1,900  Level Kansas City TRACON
10:47AM 39.3339 -94.7028 32° Northeast 159 183 3,100 2,400 Climbing Kansas City Center
10:48AM 39.3422 -94.6231 82° East 242 278 5,700 2,880 Climbing Kansas City Center
10:49AM 39.3500 -94.5217 84° East 295 339 9,100 3,900 Climbing Kansas City Center
10:50AM 39.3589 -94.3864 85° East 342 394 13,700 3,840 Climbing Kansas City Center
10:51AM 39.3675 -94.2553 85° East 379 436 17,000 3,480 Climbing Kansas City Center
10:52AM 39.3769 -94.0875 86° East 420 483 20,900 3,240 Climbing Kansas City Center
10:53AM 39.3861 -93.9331 86° East 447 514 23,800 2,700 Climbing Kansas City Center
10:54AM 39.4069 -93.7756 80° East 463 533 26,500 2,400 Climbing Kansas City Center
10:55AM 39.4325 -93.6047 79° East 487 560 28,800 2,400 Climbing Kansas City Center
10:56AM 39.4600 -93.3914 80° East 501 577 31,400 2,340 Climbing Kansas City Center
10:57AM 39.4831 -93.2092 81° East 515 593 33,700 2,040 Climbing Kansas City Center
10:58AM 39.5081 -93.0289 80° East 517 595 35,600 1,920 Climbing Kansas City Center
10:59AM 39.5297 -92.8436 81° East 523 602 37,700 1,620 Climbing Kansas City Center
11:00AM 39.5522 -92.6606 81° East 522 601 39,000 600 Climbing Kansas City Center
11:01AM 39.5753 -92.4794 81° East 519 597 39,000  Level Kansas City Center
11:02AM 39.6014 -92.2633 81° East 515 593 39,000  Level Kansas City Center
11:03AM 39.6225 -92.0828 81° East 514 592 39,000  Level Kansas City Center
11:04AM 39.6442 -91.9006 81° East 516 594 39,000  Level Kansas City Center
11:05AM 39.6639 -91.7189 82° East 516 594 39,000  Level Kansas City Center
11:06AM 39.6844 -91.5372 82° East 515 593 39,000  Level Kansas City Center
11:07AM 39.7097 -91.3153 82° East 518 596 39,000  Level Kansas City Center
11:08AM 39.7308 -91.1267 82° East 520 598 39,000  Level Kansas City Center
11:09AM 39.7506 -90.9392 82° East 522 601 39,000  Level Kansas City Center
11:10AM 39.7717 -90.7417 82° East 527 606 39,000  Level Kansas City Center
11:11AM 39.7922 -90.5567 82° East 524 603 39,000  Level Kansas City Center
11:12AM 39.8111 -90.3683 83° East 526 605 39,000  Level Kansas City Center
11:13AM 39.8306 -90.1806 82° East 526 605 39,000  Level Kansas City Center
11:14AM 39.8461 -89.9917 84° East 528 608 39,000 780 Level Kansas City Center
11:15AM 39.8447 -89.7997 90° East 535 616 40,700 960 Climbing Kansas City Center
11:16AM 39.8453 -89.5733 90° East 529 609 41,000 120 Climbing Kansas City Center
11:17AM 39.8458 -89.3839 90° East 527 606 41,000  Level Kansas City Center
11:18AM 39.8472 -89.1911 89° East 530 610 41,000  Level Kansas City Center
11:20AM 39.8467 -88.9997 90° East 532 612 41,000  Level Kansas City Center
11:21AM 39.8464 -88.8083 90° East 532 612 41,000  Level Kansas City Center
11:22AM 39.8456 -88.6164 90° East 532 612 41,000  Level Kansas City Center
11:23AM 39.8453 -88.4247 90° East 531 611 41,000  Level Kansas City Center
11:24AM 39.8442 -88.1919 90° East 535 616 41,000  Level Kansas City Center
11:24AM 39.8428 -88.1014 91° East 536 617 41,000  Level Indianapolis Center
11:25AM 39.8417 -88.0258 91° East 534 615 41,000  Level Indianapolis Center
11:26AM 39.8661 -87.8364 80° East 532 612 41,000  Level Indianapolis Center
11:27AM 39.8908 -87.6472 80° East 531 611 41,000  Level Indianapolis Center
11:28AM 39.9139 -87.4583 81° East 530 610 41,000  Level Indianapolis Center
11:29AM 39.9419 -87.2322 81° East 529 609 41,000  Level Indianapolis Center
11:30AM 39.9647 -87.0433 81° East 530 610 41,000  Level Indianapolis Center
11:31AM 39.9872 -86.8553 81° East 527 606 41,000  Level Indianapolis Center
11:32AM 40.0100 -86.6653 81° East 528 608 41,000  Level Indianapolis Center
11:33AM 40.0314 -86.4747 82° East 527 606 41,000  Level Indianapolis Center
11:34AM 40.0539 -86.2861 81° East 523 602 41,000  Level Indianapolis Center
11:35AM 40.0756 -86.0967 81° East 523 602 41,000  Level Indianapolis Center
11:36AM 40.0958 -85.9069 82° East 525 604 41,000  Level Indianapolis Center
11:37AM 40.1172 -85.7186 81° East 524 603 41,000  Level Indianapolis Center
11:38AM 40.1444 -85.5325 79° East 524 603 41,000  Level Indianapolis Center
11:39AM 40.2039 -85.3636 65° Northeast 514 592 41,000  Level Indianapolis Center
11:40AM 40.2639 -85.1964 65° Northeast 511 588 41,000  Level Indianapolis Center
11:41AM 40.3347 -84.9956 65° Northeast 510 587 41,000  Level Indianapolis Center
11:42AM 40.3847 -84.8519 65° Northeast 510 587 41,000  Level Indianapolis Center
11:43AM 40.4556 -84.6483 65° Northeast 510 587 41,000  Level Indianapolis Center
11:44AM 40.5150 -84.4794 65° Northeast 510 587 41,000  Level Indianapolis Center
11:45AM 40.5731 -84.3069 66° East 514 592 41,000  Level Indianapolis Center
11:46AM 40.6325 -84.1350 65° Northeast 515 593 41,000  Level Indianapolis Center
11:47AM 40.6917 -83.9611 66° East 519 597 41,000  Level Indianapolis Center
11:48AM 40.7511 -83.7847 66° East 523 602 41,000  Level Indianapolis Center
11:49AM 40.8092 -83.6086 66° East 523 602 41,000  Level Indianapolis Center
11:50AM 40.8628 -83.4147 70° East 528 608 41,000  Level Indianapolis Center
11:51AM 40.9136 -83.2308 70° East 528 608 41,000  Level Indianapolis Center
11:52AM 40.9656 -83.0503 69° East 522 601 41,000  Level Indianapolis Center
11:53AM 41.0231 -82.8389 70° East 521 600 41,000  Level Cleveland Center
11:54AM 41.0731 -82.6564 70° East 521 600 41,000  Level Cleveland Center
11:55AM 41.1233 -82.4731 70° East 524 603 41,000  Level Cleveland Center
11:56AM 41.1736 -82.2894 70° East 525 604 41,000  Level Cleveland Center
11:57AM 41.2258 -82.0925 71° East 526 605 41,000  Level Cleveland Center
11:58AM 41.2747 -81.9067 71° East 529 609 41,000  Level Cleveland Center
11:59AM 41.3244 -81.7211 70° East 531 611 41,000  Level Cleveland Center
12:00PM 41.3714 -81.5372 71° East 530 610 41,000  Level Cleveland Center
12:01PM 41.4219 -81.3400 71° East 531 611 41,000  Level Cleveland Center
12:02PM 41.4708 -81.1489 71° East 539 620 41,000  Level Cleveland Center
12:04PM 41.5197 -80.9575 71° East 539 620 41,000  Level Cleveland Center
12:05PM 41.5678 -80.7661 71° East 539 620 41,000  Level Cleveland Center
12:06PM 41.6164 -80.5753 71° East 539 620 41,000  Level Cleveland Center
12:07PM 41.6656 -80.3822 71° East 542 624 41,000  Level Cleveland Center
12:08PM 41.7142 -80.1892 71° East 542 624 41,000  Level Cleveland Center
12:09PM 41.7614 -79.9961 72° East 542 624 41,000  Level Cleveland Center
12:10PM 41.8078 -79.8036 72° East 542 624 41,000  Level Cleveland Center
12:11PM 41.8558 -79.5994 72° East 541 623 41,000  Level Cleveland Center
12:12PM 41.9022 -79.4083 72° East 537 618 41,000  Level Cleveland Center
12:13PM 41.9478 -79.2139 72° East 542 624 41,000  Level Cleveland Center
12:14PM 41.9933 -79.0200 72° East 542 624 41,000  Level Cleveland Center
12:15PM 42.0389 -78.8236 73° East 547 629 41,000  Level Cleveland Center
12:16PM 42.0931 -78.5894 73° East 547 629 41,000  Level Cleveland Center
12:17PM 42.1372 -78.3936 73° East 546 628 41,000  Level Cleveland Center
12:18PM 42.1781 -78.2114 73° East 546 628 41,000  Level Cleveland Center
12:19PM 42.2228 -78.0200 72° East 541 623 41,000  Level Cleveland Center
12:20PM 42.2661 -77.8261 73° East 544 626 41,000  Level Cleveland Center
12:21PM 42.3172 -77.5944 73° East 544 626 41,000  Level Cleveland Center
12:22PM 42.3592 -77.3989 74° East 548 631 41,000  Level Cleveland Center
12:23PM 42.4008 -77.2033 74° East 548 631 41,000  Level Cleveland Center
12:24PM 42.4419 -77.0067 74° East 548 631 41,000  Level Cleveland Center
12:25PM 42.4631 -76.8042 82° East 547 629 41,000  Level Boston Center
12:26PM 42.4861 -76.6008 81° East 547 629 41,000  Level Boston Center
12:27PM 42.5061 -76.3986 82° East 547 629 41,000  Level Boston Center
12:28PM 42.5294 -76.1839 82° East 543 625 41,000  Level Boston Center
12:29PM 42.5497 -75.9831 82° East 543 625 41,000  Level Boston Center
12:30PM 42.5694 -75.7831 82° East 542 624 41,000 -300 Level Boston Center
12:31PM 42.5900 -75.5814 82° East 541 623 40,400 -840 Descending Boston Center
12:32PM 42.6094 -75.3800 82° East 542 624 39,400 -960 Descending Boston Center
12:33PM 42.6281 -75.1769 83° East 545 627 38,500 -960 Descending Boston Center
12:34PM 42.6458 -74.9714 83° East 550 633 37,500 -780 Descending Boston Center
12:35PM 42.6661 -74.7656 82° East 552 635 37,000 -300 Descending Boston Center
12:36PM 42.6883 -74.5186 83° East 554 638 37,000  Level Boston Center
12:37PM 42.6978 -74.3083 86° East 557 641 37,000  Level Boston Center
12:38PM 42.6833 -74.1000 95° East 557 641 37,000  Level Boston Center
12:39PM 42.6703 -73.9183 96° East 554 638 37,000 -120 Level Boston Center
12:40PM 42.6592 -73.7092 94° East 554 638 36,800 -600 Descending Boston Center
12:41PM 42.6453 -73.4969 95° East 560 644 35,800 -1,800 Descending Boston Center
12:42PM 42.6286 -73.2333 95° East 584 672 33,200 -2,460 Descending Boston Center
12:43PM 42.6164 -73.0575 95° East 580 667 30,800 -2,460 Descending Boston Center
12:44PM 42.6008 -72.8058 95° East 558 642 28,200 -2,640 Descending Boston Center
12:45PM 42.5853 -72.6028 96° East 542 624 25,500 -2,700 Descending Boston Center
12:46PM 42.5725 -72.4119 95° East 515 593 22,900 -2,640 Descending Boston Center
12:47PM 42.5589 -72.2222 95° East 489 563 20,200 -2,640 Descending Boston Center
12:48PM 42.5481 -72.0508 95° East 465 535 17,600 -2,520 Descending Boston Center
12:49PM 42.5317 -71.8875 98° East 438 504 15,200 -2,460 Descending Boston Center
12:50PM 42.5158 -71.7222 97° East 414 476 12,700 -2,100 Descending Boston Center
12:51PM 42.5000 -71.6167 101° East 394 453 11,500 -1,320 Descending KA90
12:52PM 42.5000 -71.4667 90° East 377 434 10,400 -1,140 Descending KA90
12:53PM 42.4833 -71.3333 100° East 339 390 9,300 -1,080 Descending KA90
12:54PM 42.4667 -71.2167 101° East 325 374 8,300 -1,020 Descending KA90
12:55PM 42.4500 -71.1000 101° East 305 351 7,300 -660 Descending KA90
12:56PM 42.4500 -71.0000 90° East 262 302 7,000 -600 Descending KA90
12:57PM 42.4167 -70.9167 118° Southeast 254 292 6,200 -900 Descending KA90
12:58PM 42.3667 -70.8500 135° Southeast 242 278 5,200 -1,260 Descending KA90
12:59PM 42.3167 -70.8000 144° Southeast 228 262 3,700 -1,200 Descending KA90
01:00PM 42.2667 -70.8167 194° South 155 178 2,900 -840 Descending KA90
01:01PM 42.2667 -70.8667 270° West 148 170 2,100 -600 Descending KA90
01:02PM 42.3000 -70.9167 312° West 150 173 1,800 -600 Descending KA90
01:03PM 42.3333 -70.9500 324° Northwest 141 162 1,000 -780 Descending KA90
01:04PM 42.3500 -70.9833 304° West 118 136 300 -720 Descending KA90